createdAt,value
2018-04-23T00:02:04.910Z,24.07
2018-04-23T00:04:31.330Z,23.97
2018-04-23T00:06:57.749Z,22.60
2018-04-23T00:09:24.947Z,24.40
2018-04-23T00:11:51.366Z,32.90
2018-04-23T00:14:17.814Z,24.03
2018-04-23T00:16:44.229Z,31.57
2018-04-23T00:19:10.630Z,29.83
2018-04-23T00:21:37.852Z,28.67
2018-04-23T00:24:05.620Z,23.80
2018-04-23T00:26:32.033Z,29.33
2018-04-23T00:28:58.439Z,35.70
2018-04-23T00:31:24.876Z,27.87
2018-04-23T00:33:51.386Z,34.87
2018-04-23T00:36:17.886Z,29.87
2018-04-23T00:38:44.316Z,23.97
2018-04-23T00:41:10.710Z,33.57
2018-04-23T00:43:37.886Z,29.33
2018-04-23T00:46:04.811Z,31.83
2018-04-23T00:48:32.004Z,33.37
2018-04-23T00:50:58.425Z,37.97
2018-04-23T00:53:37.143Z,32.00
2018-04-23T00:56:04.619Z,29.83
2018-04-23T00:58:31.150Z,32.10
2018-04-23T01:00:57.562Z,30.67
2018-04-23T01:03:24.483Z,38.90
2018-04-23T01:05:50.954Z,36.30
2018-04-23T01:08:17.426Z,36.00
2018-04-23T01:10:44.621Z,37.50
2018-04-23T01:13:11.138Z,37.20
2018-04-23T01:15:37.637Z,36.33
2018-04-23T01:18:04.243Z,34.70
2018-04-23T01:20:31.431Z,37.97
2018-04-23T01:22:58.601Z,45.33
2018-04-23T01:25:25.053Z,40.50
2018-04-23T01:27:51.498Z,39.77
2018-04-23T01:30:17.927Z,46.10
2018-04-23T01:32:44.418Z,47.07
2018-04-23T01:35:10.879Z,41.27
2018-04-23T01:37:37.323Z,47.90
2018-04-23T01:40:04.960Z,44.63
2018-04-23T01:42:31.431Z,36.97
2018-04-23T01:44:57.866Z,51.57
2018-04-23T01:47:24.306Z,43.87
2018-04-23T01:49:50.778Z,39.20
2018-04-23T01:52:17.215Z,42.33
2018-04-23T01:54:43.738Z,50.97
2018-04-23T01:57:10.157Z,43.47
2018-04-23T01:59:36.599Z,39.47
2018-04-23T02:02:03.189Z,40.83
2018-04-23T02:04:30.377Z,41.80
2018-04-23T02:06:56.839Z,41.77
2018-04-23T02:09:23.253Z,54.47
2018-04-23T02:11:49.762Z,49.63
2018-04-23T02:14:17.004Z,39.80
2018-04-23T02:16:43.423Z,41.50
2018-04-23T02:19:09.873Z,39.13
2018-04-23T02:21:36.306Z,35.63
2018-04-23T02:24:02.816Z,32.33
2018-04-23T02:26:29.293Z,28.30
2018-04-23T02:28:55.831Z,38.70
2018-04-23T02:31:22.280Z,31.93
2018-04-23T02:33:48.762Z,27.03
2018-04-23T02:36:15.195Z,27.93
2018-04-23T02:38:41.655Z,25.83
2018-04-23T02:41:08.088Z,29.20
2018-04-23T02:43:35.310Z,29.87
2018-04-23T02:46:02.504Z,24.37
2018-04-23T02:48:28.975Z,32.23
2018-04-23T02:50:55.892Z,23.63
2018-04-23T02:53:22.289Z,20.70
2018-04-23T02:55:48.771Z,24.20
2018-04-23T02:58:15.269Z,18.90
2018-04-23T03:00:42.469Z,21.20
2018-04-23T03:03:08.906Z,36.50
2018-04-23T03:05:35.431Z,29.57
2018-04-23T03:08:01.933Z,27.80
2018-04-23T03:10:28.398Z,21.90
2018-04-23T03:12:54.824Z,22.53
2018-04-23T03:15:21.316Z,33.10
2018-04-23T03:17:48.485Z,27.03
2018-04-23T03:20:15.702Z,28.13
2018-04-23T03:22:42.125Z,29.13
2018-04-23T03:25:08.554Z,25.60
2018-04-23T03:27:35.013Z,30.33
2018-04-23T03:30:01.461Z,26.73
2018-04-23T03:32:27.932Z,21.00
2018-04-23T03:34:54.354Z,25.23
2018-04-23T03:37:20.817Z,35.47
2018-04-23T03:39:47.277Z,24.20
2018-04-23T03:42:14.486Z,31.93
2018-04-23T03:44:40.924Z,24.00
2018-04-23T03:47:07.533Z,24.53
2018-04-23T03:49:34.775Z,32.83
2018-04-23T03:52:01.579Z,34.60
2018-04-23T03:54:36.645Z,25.63
2018-04-23T03:57:07.424Z,32.40
2018-04-23T03:59:34.801Z,32.90
2018-04-23T04:02:01.461Z,24.07
2018-04-23T04:04:28.212Z,22.00
2018-04-23T04:06:57.038Z,21.53
2018-04-23T04:09:24.081Z,29.70
2018-04-23T04:11:51.558Z,25.67
2018-04-23T04:14:31.209Z,29.33
2018-04-23T04:16:59.754Z,25.90
2018-04-23T04:19:29.183Z,24.17
2018-04-23T04:21:56.811Z,32.17
2018-04-23T04:24:23.471Z,30.80
2018-04-23T04:26:50.191Z,28.40
2018-04-23T04:29:17.214Z,24.97
2018-04-23T04:31:44.497Z,19.60
2018-04-23T04:34:11.765Z,21.50
2018-04-23T04:36:39.655Z,19.80
2018-04-23T04:39:06.486Z,21.47
2018-04-23T04:41:33.070Z,23.10
2018-04-23T04:43:59.909Z,19.53
2018-04-23T04:46:27.971Z,15.10
2018-04-23T04:48:55.261Z,17.70
2018-04-23T04:51:21.967Z,19.23
2018-04-23T04:53:51.730Z,18.03
2018-04-23T04:56:18.956Z,16.10
2018-04-23T04:58:45.614Z,29.77
2018-04-23T05:01:14.856Z,16.00
2018-04-23T05:03:44.198Z,17.50
2018-04-23T05:06:11.247Z,15.40
2018-04-23T05:08:37.931Z,13.27
2018-04-23T05:11:04.779Z,17.57
2018-04-23T05:13:31.616Z,16.80
2018-04-23T05:15:58.543Z,13.93
2018-04-23T05:18:25.185Z,13.53
2018-04-23T05:20:52.510Z,16.33
2018-04-23T05:23:20.973Z,9.57
2018-04-23T05:25:49.338Z,12.73
2018-04-23T05:28:16.708Z,12.63
2018-04-23T05:30:43.418Z,20.80
2018-04-23T05:33:10.050Z,11.53
2018-04-23T05:35:36.902Z,13.30
2018-04-23T05:38:03.621Z,14.90
2018-04-23T05:40:30.986Z,21.13
2018-04-23T05:42:58.441Z,13.10
2018-04-23T05:45:25.957Z,15.50
2018-04-23T05:47:54.239Z,11.73
2018-04-23T05:50:21.638Z,14.97
2018-04-23T05:52:49.169Z,9.03
2018-04-23T05:55:17.109Z,16.10
2018-04-23T05:57:44.525Z,24.07
2018-04-23T06:00:27.799Z,13.80
2018-04-23T06:02:55.609Z,22.47
2018-04-23T06:05:34.419Z,14.97
2018-04-23T06:08:01.514Z,13.70
2018-04-23T06:10:28.231Z,14.10
2018-04-23T06:12:55.729Z,12.67
2018-04-23T06:15:22.421Z,24.90
2018-04-23T06:17:50.655Z,16.43
2018-04-23T06:20:17.318Z,14.83
2018-04-23T06:22:45.197Z,15.03
2018-04-23T06:25:11.877Z,13.43
2018-04-23T06:27:39.452Z,12.13
2018-04-23T06:30:08.262Z,11.60
2018-04-23T06:32:34.752Z,18.80
2018-04-23T06:35:01.998Z,20.60
2018-04-23T06:37:29.702Z,14.37
2018-04-23T06:39:58.047Z,13.53
2018-04-23T06:42:24.616Z,19.97
2018-04-23T06:44:51.234Z,13.20
2018-04-23T06:47:17.815Z,23.10
2018-04-23T06:49:44.366Z,18.40
2018-04-23T06:52:11.689Z,11.40
2018-04-23T06:54:38.319Z,20.37
2018-04-23T06:57:05.350Z,20.33
2018-04-23T06:59:32.777Z,13.63
2018-04-23T07:02:01.734Z,13.83
2018-04-23T07:04:29.497Z,19.47
2018-04-23T07:06:56.005Z,13.20
2018-04-23T07:09:22.596Z,20.63
2018-04-23T07:11:49.899Z,15.80
2018-04-23T07:14:16.434Z,23.70
2018-04-23T07:16:43.067Z,12.53
2018-04-23T07:19:10.743Z,13.17
2018-04-23T07:21:37.358Z,9.97
2018-04-23T07:24:04.338Z,17.83
2018-04-23T07:26:30.928Z,11.67
2018-04-23T07:28:58.253Z,15.20
2018-04-23T07:31:26.152Z,17.73
2018-04-23T07:33:53.439Z,12.13
2018-04-23T07:36:20.010Z,13.47
2018-04-23T07:38:46.581Z,13.70
2018-04-23T07:41:13.673Z,13.53
2018-04-23T07:43:40.929Z,15.53
2018-04-23T07:46:07.536Z,11.07
2018-04-23T07:48:36.750Z,9.60
2018-04-23T07:51:05.090Z,12.50
2018-04-23T07:53:34.357Z,9.53
2018-04-23T07:56:02.735Z,7.13
2018-04-23T07:58:36.145Z,10.10
2018-04-23T08:01:05.541Z,10.70
2018-04-23T08:03:33.120Z,16.27
2018-04-23T08:05:59.994Z,9.43
2018-04-23T08:08:37.066Z,13.77
2018-04-23T08:11:06.259Z,10.20
2018-04-23T08:13:34.500Z,15.00
2018-04-23T08:16:02.243Z,12.30
2018-04-23T08:18:31.451Z,12.10
2018-04-23T08:21:00.380Z,14.57
2018-04-23T08:23:29.765Z,12.30
2018-04-23T08:25:56.538Z,7.07
2018-04-23T08:28:24.381Z,8.23
2018-04-23T08:30:52.035Z,7.23
2018-04-23T08:33:18.905Z,9.10
2018-04-23T08:35:48.930Z,14.23
2018-04-23T08:38:17.811Z,15.70
2018-04-23T08:40:47.905Z,12.43
2018-04-23T08:43:14.615Z,10.50
2018-04-23T08:45:41.523Z,10.67
2018-04-23T08:48:09.491Z,14.07
2018-04-23T08:50:38.277Z,11.80
2018-04-23T08:53:04.922Z,8.67
2018-04-23T08:55:35.213Z,9.17
2018-04-23T08:58:03.232Z,7.43
2018-04-23T09:00:30.367Z,8.33
2018-04-23T09:02:58.963Z,9.83
2018-04-23T09:05:25.803Z,9.50
2018-04-23T09:07:52.571Z,7.97
2018-04-23T09:10:21.169Z,9.40
2018-04-23T09:12:49.382Z,7.73
2018-04-23T09:15:18.441Z,7.63
2018-04-23T09:17:45.334Z,7.27
2018-04-23T09:20:16.849Z,10.30
2018-04-23T09:22:43.517Z,8.60
2018-04-23T09:25:11.158Z,7.73
2018-04-23T09:27:39.628Z,15.70
2018-04-23T09:30:11.361Z,11.33
2018-04-23T09:32:39.927Z,9.27
2018-04-23T09:35:08.799Z,9.80
2018-04-23T09:37:36.919Z,10.53
2018-04-23T09:40:04.656Z,8.80
2018-04-23T09:42:32.739Z,7.47
2018-04-23T09:45:01.992Z,7.00
2018-04-23T09:47:30.327Z,5.20
2018-04-23T09:49:57.222Z,5.10
2018-04-23T09:52:31.455Z,5.73
2018-04-23T09:54:58.298Z,11.00
2018-04-23T09:57:24.939Z,5.77
2018-04-23T09:59:52.775Z,7.10
2018-04-23T10:02:24.373Z,6.20
2018-04-23T10:04:52.724Z,8.00
2018-04-23T10:07:20.342Z,4.80
2018-04-23T10:09:47.666Z,5.63
2018-04-23T10:12:14.411Z,5.53
2018-04-23T10:14:43.690Z,4.90
2018-04-23T10:17:12.757Z,4.83
2018-04-23T10:19:39.566Z,5.53
2018-04-23T10:22:09.225Z,7.40
2018-04-23T10:24:36.769Z,3.87
2018-04-23T10:27:05.687Z,5.67
2018-04-23T10:29:32.485Z,5.50
2018-04-23T10:32:01.395Z,9.67
2018-04-23T10:34:29.277Z,6.57
2018-04-23T10:36:56.693Z,5.70
2018-04-23T10:39:24.130Z,4.53
2018-04-23T10:41:52.306Z,6.37
2018-04-23T10:44:18.910Z,7.50
2018-04-23T10:46:47.971Z,5.90
2018-04-23T10:49:15.366Z,6.83
2018-04-23T10:51:44.821Z,4.20
2018-04-23T10:54:11.410Z,3.37
2018-04-23T10:56:40.424Z,14.17
2018-04-23T10:59:09.862Z,8.17
2018-04-23T11:01:37.505Z,4.80
2018-04-23T11:04:07.160Z,7.27
2018-04-23T11:06:35.621Z,11.17
2018-04-23T11:09:03.179Z,3.67
2018-04-23T11:11:29.954Z,6.03
2018-04-23T11:13:57.484Z,4.33
2018-04-23T11:16:26.424Z,4.57
2018-04-23T11:18:53.143Z,4.30
2018-04-23T11:21:23.802Z,6.50
2018-04-23T11:23:51.107Z,9.70
2018-04-23T11:26:21.266Z,5.20
2018-04-23T11:28:50.293Z,6.00
2018-04-23T11:31:20.914Z,23.30
2018-04-23T11:33:50.478Z,7.57
2018-04-23T11:36:19.086Z,4.90
2018-04-23T11:38:48.860Z,4.27
2018-04-23T11:41:16.102Z,7.50
2018-04-23T11:43:43.298Z,9.53
2018-04-23T11:46:12.873Z,8.63
2018-04-23T11:48:39.485Z,7.27
2018-04-23T11:51:06.577Z,7.23
2018-04-23T11:53:34.965Z,7.23
2018-04-23T11:56:04.202Z,8.33
2018-04-23T11:58:32.687Z,5.53
2018-04-23T12:01:01.645Z,4.83
2018-04-23T12:03:31.387Z,7.20
2018-04-23T12:05:58.884Z,6.83
2018-04-23T12:08:25.845Z,4.80
2018-04-23T12:10:54.248Z,4.90
2018-04-23T12:13:24.725Z,4.40
2018-04-23T12:15:54.556Z,8.83
2018-04-23T12:18:23.950Z,5.67
2018-04-23T12:20:54.481Z,5.50
2018-04-23T12:23:21.755Z,4.57
2018-04-23T12:25:49.813Z,6.20
2018-04-23T12:28:20.110Z,7.60
2018-04-23T12:30:47.563Z,3.83
2018-04-23T12:33:17.449Z,3.60
2018-04-23T12:35:46.157Z,4.40
2018-04-23T12:38:13.576Z,6.77
2018-04-23T12:40:42.971Z,6.10
2018-04-23T12:43:10.400Z,4.73
2018-04-23T12:45:38.668Z,10.03
2018-04-23T12:48:06.769Z,4.20
2018-04-23T12:50:34.312Z,8.53
2018-04-23T12:53:05.696Z,6.73
2018-04-23T12:55:37.480Z,9.60
2018-04-23T12:58:04.912Z,5.87
2018-04-23T13:00:33.917Z,8.10
2018-04-23T13:03:02.043Z,5.00
2018-04-23T13:05:32.693Z,14.60
2018-04-23T13:07:59.627Z,3.90
2018-04-23T13:10:27.282Z,4.03
2018-04-23T13:12:55.568Z,5.50
2018-04-23T13:15:26.023Z,8.70
2018-04-23T13:17:55.790Z,5.10
2018-04-23T13:20:24.033Z,6.93
2018-04-23T13:22:50.637Z,7.93
2018-04-23T13:25:17.257Z,7.87
2018-04-23T13:27:45.063Z,5.67
2018-04-23T13:30:17.508Z,7.90
2018-04-23T13:32:48.358Z,6.60
2018-04-23T13:35:19.139Z,9.50
2018-04-23T13:37:47.978Z,6.00
2018-04-23T13:40:14.521Z,7.53
2018-04-23T13:42:41.304Z,6.63
2018-04-23T13:45:10.298Z,6.43
2018-04-23T13:47:38.456Z,6.57
2018-04-23T13:50:05.920Z,5.90
2018-04-23T13:52:34.212Z,7.00
2018-04-23T13:55:01.855Z,5.73
2018-04-23T13:57:31.155Z,10.03
2018-04-23T13:59:59.421Z,7.00
2018-04-23T14:02:26.783Z,7.03
2018-04-23T14:04:55.728Z,8.90
2018-04-23T14:07:23.976Z,7.83
2018-04-23T14:09:52.035Z,12.10
2018-04-23T14:12:20.211Z,10.50
2018-04-23T14:14:47.958Z,9.90
2018-04-23T14:17:16.322Z,7.43
2018-04-23T14:19:43.047Z,8.30
2018-04-23T14:22:10.304Z,13.13
2018-04-23T14:24:38.483Z,6.97
2018-04-23T14:27:06.185Z,8.83
2018-04-23T14:29:34.176Z,9.20
2018-04-23T14:32:01.409Z,7.90
2018-04-23T14:34:29.018Z,7.60
2018-04-23T14:37:02.697Z,13.93
2018-04-23T14:39:32.814Z,13.40
2018-04-23T14:41:59.422Z,9.67
2018-04-23T14:44:26.871Z,7.53
2018-04-23T14:46:54.330Z,7.77
2018-04-23T14:49:23.469Z,10.77
2018-04-23T14:51:51.777Z,9.40
2018-04-23T14:54:19.319Z,8.30
2018-04-23T14:56:48.388Z,15.43
2018-04-23T14:59:16.086Z,13.63
2018-04-23T15:01:43.668Z,10.20
2018-04-23T15:04:10.373Z,8.40
2018-04-23T15:06:37.062Z,7.63
2018-04-23T15:09:04.727Z,9.00
2018-04-23T15:11:33.293Z,12.40
2018-04-23T15:14:00.588Z,11.47
2018-04-23T15:16:28.729Z,7.60
2018-04-23T15:18:56.247Z,10.97
2018-04-23T15:21:24.877Z,12.37
2018-04-23T15:23:51.398Z,9.43
2018-04-23T15:26:19.024Z,12.90
2018-04-23T15:28:51.584Z,11.53
2018-04-23T15:31:19.029Z,9.93
2018-04-23T15:33:50.106Z,12.23
2018-04-23T15:36:21.746Z,14.30
2018-04-23T15:38:50.317Z,8.80
2018-04-23T15:41:19.302Z,7.90
2018-04-23T15:43:46.759Z,9.07
2018-04-23T15:46:14.055Z,14.93
2018-04-23T15:48:44.905Z,9.83
2018-04-23T15:51:12.134Z,12.63
2018-04-23T15:53:39.726Z,8.33
2018-04-23T15:56:09.937Z,7.33
2018-04-23T15:58:39.216Z,14.40
2018-04-23T16:01:07.679Z,15.63
2018-04-23T16:03:35.728Z,11.80
2018-04-23T16:06:03.394Z,10.50
2018-04-23T16:08:30.930Z,12.23
2018-04-23T16:10:58.361Z,7.93
2018-04-23T16:13:25.991Z,9.93
2018-04-23T16:15:52.667Z,9.63
2018-04-23T16:18:20.051Z,9.70
2018-04-23T16:20:49.436Z,10.80
2018-04-23T16:23:16.058Z,10.07
2018-04-23T16:25:42.665Z,10.60
2018-04-23T16:28:10.121Z,14.73
2018-04-23T16:30:39.357Z,10.27
2018-04-23T16:33:07.151Z,9.10
2018-04-23T16:35:34.843Z,13.33
2018-04-23T16:38:04.282Z,15.60
2018-04-23T16:40:31.896Z,10.87
2018-04-23T16:42:58.463Z,14.33
2018-04-23T16:45:25.795Z,14.70
2018-04-23T16:47:53.065Z,13.73
2018-04-23T16:50:20.900Z,11.53
2018-04-23T16:52:48.398Z,9.43
2018-04-23T16:55:17.376Z,13.47
2018-04-23T16:57:46.229Z,10.30
2018-04-23T17:00:14.579Z,14.13
2018-04-23T17:02:41.186Z,13.13
2018-04-23T17:05:07.737Z,8.97
2018-04-23T17:07:35.115Z,9.33
2018-04-23T17:10:03.126Z,8.47
2018-04-23T17:12:29.646Z,6.83
2018-04-23T17:14:57.681Z,8.67
2018-04-23T17:17:26.943Z,20.10
2018-04-23T17:19:55.081Z,14.43
2018-04-23T17:22:22.868Z,10.23
2018-04-23T17:24:49.490Z,13.70
2018-04-23T17:27:17.029Z,12.83
2018-04-23T17:29:45.309Z,11.83
2018-04-23T17:32:14.061Z,11.90
2018-04-23T17:34:41.890Z,10.30
2018-04-23T17:37:11.865Z,17.13
2018-04-23T17:39:39.879Z,16.40
2018-04-23T17:42:07.432Z,12.67
2018-04-23T17:44:35.080Z,16.37
2018-04-23T17:47:02.859Z,10.30
2018-04-23T17:49:30.503Z,17.23
2018-04-23T17:51:59.636Z,15.87
2018-04-23T17:54:27.590Z,12.30
2018-04-23T17:57:00.289Z,13.37
2018-04-23T17:59:28.208Z,14.40
2018-04-23T18:01:55.400Z,13.70
2018-04-23T18:04:22.984Z,11.97
2018-04-23T18:06:50.788Z,12.20
2018-04-23T18:09:18.159Z,15.10
2018-04-23T18:11:48.118Z,14.43
2018-04-23T18:14:14.661Z,15.23
2018-04-23T18:16:41.322Z,17.30
2018-04-23T18:19:08.841Z,10.87
2018-04-23T18:21:37.754Z,14.13
2018-04-23T18:24:05.115Z,11.73
2018-04-23T18:26:31.647Z,9.80
2018-04-23T18:28:58.731Z,12.70
2018-04-23T18:31:26.187Z,10.40
2018-04-23T18:33:52.738Z,9.67
2018-04-23T18:36:19.240Z,8.77
2018-04-23T18:38:46.053Z,9.07
2018-04-23T18:41:14.222Z,10.27
2018-04-23T18:43:41.699Z,12.70
2018-04-23T18:46:09.014Z,10.17
2018-04-23T18:48:35.613Z,10.80
2018-04-23T18:51:02.182Z,8.30
2018-04-23T18:53:29.474Z,7.17
2018-04-23T18:55:57.040Z,12.37
2018-04-23T18:58:25.988Z,7.80
2018-04-23T19:00:52.787Z,9.00
2018-04-23T19:03:20.201Z,10.93
2018-04-23T19:05:51.375Z,9.63
2018-04-23T19:08:19.813Z,11.60
2018-04-23T19:10:46.936Z,13.43
2018-04-23T19:13:14.569Z,11.57
2018-04-23T19:15:41.191Z,11.67
2018-04-23T19:18:07.861Z,8.13
2018-04-23T19:20:34.281Z,10.97
2018-04-23T19:23:01.454Z,11.03
2018-04-23T19:25:28.014Z,10.00
2018-04-23T19:27:55.334Z,11.80
2018-04-23T19:30:21.797Z,8.73
2018-04-23T19:32:49.279Z,18.77
2018-04-23T19:35:16.578Z,14.20
2018-04-23T19:37:43.743Z,10.80
2018-04-23T19:40:10.215Z,7.97
2018-04-23T19:42:36.709Z,12.03
2018-04-23T19:45:04.139Z,12.93
2018-04-23T19:47:30.712Z,9.47
2018-04-23T19:49:57.132Z,13.47
2018-04-23T19:52:23.678Z,9.00
2018-04-23T19:54:50.259Z,7.40
2018-04-23T19:57:16.736Z,7.40
2018-04-23T19:59:43.337Z,11.00
2018-04-23T20:02:10.532Z,11.97
2018-04-23T20:04:36.950Z,14.00
2018-04-23T20:07:03.474Z,11.13
2018-04-23T20:09:29.937Z,8.30
2018-04-23T20:11:56.392Z,16.77
2018-04-23T20:14:22.832Z,8.60
2018-04-23T20:16:49.284Z,8.87
2018-04-23T20:19:15.764Z,8.67
2018-04-23T20:21:42.242Z,10.70
2018-04-23T20:24:08.689Z,8.70
2018-04-23T20:26:35.876Z,10.07
2018-04-23T20:29:02.343Z,11.60
2018-04-23T20:31:28.802Z,7.40
2018-04-23T20:33:55.260Z,7.87
2018-04-23T20:36:22.433Z,8.57
2018-04-23T20:38:48.886Z,10.00
2018-04-23T20:41:15.365Z,6.63
2018-04-23T20:43:41.829Z,11.37
2018-04-23T20:46:08.282Z,12.90
2018-04-23T20:48:35.510Z,12.20
2018-04-23T20:51:02.764Z,12.27
2018-04-23T20:53:29.213Z,10.53
2018-04-23T20:55:55.690Z,7.27
2018-04-23T20:58:22.097Z,7.70
2018-04-23T21:00:48.513Z,6.87
2018-04-23T21:03:15.024Z,7.73
2018-04-23T21:05:41.495Z,11.00
2018-04-23T21:08:07.970Z,6.20
2018-04-23T21:10:34.389Z,6.17
2018-04-23T21:13:01.627Z,6.73
2018-04-23T21:15:28.155Z,5.70
2018-04-23T21:17:54.602Z,6.07
2018-04-23T21:20:22.184Z,12.20
2018-04-23T21:22:48.632Z,14.13
2018-04-23T21:25:15.162Z,9.73
2018-04-23T21:27:41.816Z,9.00
2018-04-23T21:30:09.762Z,11.43
2018-04-23T21:32:36.254Z,6.07
2018-04-23T21:35:02.824Z,13.23
2018-04-23T21:37:29.263Z,8.23
2018-04-23T21:39:56.462Z,13.20
2018-04-23T21:42:22.909Z,7.33
2018-04-23T21:44:49.325Z,6.07
2018-04-23T21:47:16.462Z,11.23
2018-04-23T21:49:43.634Z,8.63
2018-04-23T21:52:10.105Z,7.67
2018-04-23T21:54:36.551Z,6.60
2018-04-23T21:57:02.985Z,7.27
2018-04-23T21:59:29.455Z,7.30
2018-04-23T22:01:55.875Z,10.23
2018-04-23T22:04:22.311Z,4.67
2018-04-23T22:06:49.761Z,7.40
2018-04-23T22:09:16.981Z,5.90
2018-04-23T22:11:43.428Z,10.03
2018-04-23T22:14:09.950Z,6.40
2018-04-23T22:16:36.388Z,12.73
2018-04-23T22:19:02.802Z,7.43
2018-04-23T22:21:29.962Z,8.90
2018-04-23T22:23:56.357Z,6.27
2018-04-23T22:26:22.770Z,7.97
2018-04-23T22:28:49.174Z,15.30
2018-04-23T22:31:17.090Z,12.40
2018-04-23T22:33:43.511Z,7.80
2018-04-23T22:36:10.067Z,4.73
2018-04-23T22:38:36.479Z,12.63
2018-04-23T22:41:02.908Z,9.17
2018-04-23T22:43:30.079Z,9.30
2018-04-23T22:45:56.497Z,8.83
2018-04-23T22:48:24.090Z,8.30
2018-04-23T22:50:50.523Z,9.47
2018-04-23T22:53:16.966Z,11.80
2018-04-23T22:55:43.390Z,4.53
2018-04-23T22:58:09.845Z,9.63
2018-04-23T23:00:37.146Z,5.53
2018-04-23T23:03:05.107Z,13.43
2018-04-23T23:05:31.538Z,7.73
2018-04-23T23:07:58.356Z,7.30
2018-04-23T23:10:24.836Z,11.30
2018-04-23T23:12:51.252Z,15.30
2018-04-23T23:15:17.767Z,8.60
2018-04-23T23:17:44.905Z,6.53
2018-04-23T23:20:11.338Z,5.80
2018-04-23T23:22:37.748Z,10.03
2018-04-23T23:25:04.281Z,5.93
2018-04-23T23:27:30.702Z,10.80
2018-04-23T23:29:57.899Z,9.27
2018-04-23T23:32:25.858Z,14.70
2018-04-23T23:34:52.356Z,10.07
2018-04-23T23:37:18.804Z,6.93
2018-04-23T23:39:45.968Z,9.40
2018-04-23T23:42:12.413Z,6.57
2018-04-23T23:44:38.914Z,4.83
2018-04-23T23:47:05.357Z,8.07
2018-04-23T23:49:31.831Z,2.80
2018-04-23T23:51:58.276Z,6.23
2018-04-23T23:54:24.709Z,6.20
2018-04-23T23:56:51.141Z,2.00
2018-04-23T23:59:17.564Z,11.17
